CNL4 weather

Port Elgin Airport
Port Elgin, Ontario, Canada

Public forecast

Using degrees Celsius for public forecast. Weather courtesy of forecast.io.

Closest aviation weather report (METAR) to Port Elgin Airport

Closest report is Wiarton Airport, 23.8 nm (44.1 km) NNE. Retrieved 2019/10/16 23:24 UTC (1 minute ago):

CYVV 162324Z 31006KT 270V360 10SM SCT010 OVC018 09/08 A2946 RMK SF4SC4 SLP980

Closest aviation forecast (TAF) to Port Elgin Airport

Closest forecast is Wiarton Airport, 23.8 nm (44.1 km) NNE. Retrieved 2019/10/16 20:00 UTC (3 hours ago):

TAF CYVV 161938Z 1620/1623 22012KT P6SM SCT008 OVC025 TEMPO 1620/1623 4SM -SHRA -DZ BR OVC008 BECMG 1621/1623 30008KT RMK NXT FCST WILL BE ISSUED AT 171045Z